Pagrindinis puslapis
METAR-TAF:

METAR-TAF

Oro uostai :

Alor Setaras, Malaizija

platuma: 06-11-40N, ilguma: 100-24-03E, Aukštis: 5 m

Dabartinis oras

Ataskaita buvo paskelbta 40 minutes, ne 00:00 UTC
Ramus vėjas
Temperatūra 20°C
Drėgmė 100%
Slėgis 1009 hPa
Matomumas: 6000 m
Mažai debesys ne aukštis 1000 ft

METAR: WMKA 260000Z 00000KT 6000 FEW010 20/20 Q1009

Laikas: 08:40 (00:40 UTC)

Prognozė

Ataskaita buvo paskelbta 1 valandą ir 40 minutes, ne 23:00 UTC
Prognozė galioja nuo 26 metu 00 UTC su 27 metu 00 UTC
Vėjas 3 kt nuo kintamojo kryptimis
Matomumas: 7000 m
Mažai debesys ne aukštis 2000 ft
Tapsmas
nuo 26 metu 06 UTC su 26 metu 08 UTC
Vėjas 8 kt iš Vakarų/Šiaurės Vakarų
Matomumas: 9000 m
Tapsmas
nuo 26 metu 10 UTC su 26 metu 12 UTC
Vėjas 3 kt nuo kintamojo kryptimis
Mažai debesys ne aukštis 3000 ft

TAF: WMKA 252300Z 2600/2700 VRB03KT 7000 FEW020 BECMG 2606/2608 29008KT 9000 BECMG 2610/2612 VRB03KT FEW030

Orai ataskaitas ir orų prognozės (METAR, TAF).

turimą stotys yra geltonos ir raudonos taškus žemėlapyje.

Perkelti pele per norėdami pamatyti stoties vardą.

Tada spustelėkite, norėdami matyti oro stebėjimo ir prognozės.

Norėdami pakeisti žemėlapį: spustelėkite ant žalios mygtukų su juodo kryžiaus žemyn,; žalią mygtuką su brūkšneliu, jei norite nutolinti; arba žalių rodyklių gretimoms žemėlapius.


METAR-TAF: